createdAt,value
2022-12-04T00:01:30.393Z,1.50
2022-12-04T00:04:00.811Z,1.50
2022-12-04T00:06:29.691Z,1.50
2022-12-04T00:08:57.835Z,1.50
2022-12-04T00:11:29.355Z,1.50
2022-12-04T00:14:04.582Z,1.50
2022-12-04T00:16:33.305Z,1.60
2022-12-04T00:19:01.424Z,1.60
2022-12-04T00:21:30.017Z,1.60
2022-12-04T00:23:58.213Z,1.60
2022-12-04T00:26:28.301Z,1.60
2022-12-04T00:28:57.790Z,1.50
2022-12-04T00:31:28.739Z,1.50
2022-12-04T00:33:57.341Z,1.60
2022-12-04T00:36:29.045Z,1.60
2022-12-04T00:38:58.969Z,1.50
2022-12-04T00:41:30.062Z,1.60
2022-12-04T00:43:58.286Z,1.60
2022-12-04T00:46:27.170Z,1.60
2022-12-04T00:48:55.173Z,1.60
2022-12-04T00:51:25.942Z,1.60
2022-12-04T00:53:54.446Z,1.70
2022-12-04T00:56:28.307Z,1.60
2022-12-04T00:58:58.954Z,1.60
2022-12-04T01:01:29.919Z,1.60
2022-12-04T01:03:58.252Z,1.60
2022-12-04T01:06:34.565Z,1.60
2022-12-04T01:09:05.325Z,1.60
2022-12-04T01:11:33.940Z,1.60
2022-12-04T01:14:02.405Z,1.60
2022-12-04T01:16:39.075Z,1.60
2022-12-04T01:19:09.288Z,1.60
2022-12-04T01:21:38.593Z,1.60
2022-12-04T01:24:07.756Z,1.60
2022-12-04T01:26:36.146Z,1.60
2022-12-04T01:29:04.577Z,1.60
2022-12-04T01:31:32.615Z,1.60
2022-12-04T01:34:01.004Z,1.60
2022-12-04T01:36:29.702Z,1.60
2022-12-04T01:38:58.604Z,1.60
2022-12-04T01:41:29.080Z,1.60
2022-12-04T01:44:15.420Z,1.50
2022-12-04T01:46:46.964Z,1.60
2022-12-04T01:49:21.677Z,1.60
2022-12-04T01:51:54.831Z,1.50
2022-12-04T01:54:34.528Z,1.60
2022-12-04T01:57:08.143Z,1.50
2022-12-04T01:59:42.471Z,1.50
2022-12-04T02:02:13.480Z,1.60
2022-12-04T02:04:43.038Z,1.50
2022-12-04T02:07:11.428Z,1.50
2022-12-04T02:09:41.574Z,1.50
2022-12-04T02:12:25.593Z,1.50
2022-12-04T02:15:17.325Z,1.50
2022-12-04T02:17:54.174Z,1.50
2022-12-04T02:20:26.601Z,1.50
2022-12-04T02:23:23.918Z,1.50
2022-12-04T02:26:02.102Z,1.50
2022-12-04T02:28:54.331Z,1.50
2022-12-04T02:31:31.348Z,1.40
2022-12-04T02:34:07.366Z,1.40
2022-12-04T02:36:45.442Z,1.40
2022-12-04T02:39:25.340Z,1.40
2022-12-04T02:42:11.604Z,1.40
2022-12-04T02:44:45.816Z,1.40
2022-12-04T02:47:16.900Z,1.40
2022-12-04T02:49:59.044Z,1.40
2022-12-04T02:52:40.098Z,1.40
2022-12-04T02:55:15.175Z,1.40
2022-12-04T02:57:48.535Z,1.40
2022-12-04T03:00:17.904Z,1.40
2022-12-04T03:02:51.969Z,1.40
2022-12-04T03:05:25.885Z,1.40
2022-12-04T03:07:59.296Z,1.40
2022-12-04T03:10:34.179Z,1.30
2022-12-04T03:13:12.120Z,1.30
2022-12-04T03:15:53.522Z,1.30
2022-12-04T03:18:34.138Z,1.30
2022-12-04T03:21:08.284Z,1.20
2022-12-04T03:24:03.602Z,1.20
2022-12-04T03:26:34.447Z,1.20
2022-12-04T03:29:12.021Z,1.20
2022-12-04T03:32:01.076Z,1.20
2022-12-04T03:34:39.064Z,1.20
2022-12-04T03:37:17.691Z,1.20
2022-12-04T03:40:34.201Z,1.20
2022-12-04T03:43:13.566Z,1.10
2022-12-04T03:46:29.431Z,1.20
2022-12-04T03:49:09.714Z,1.20
2022-12-04T03:51:56.836Z,1.10
2022-12-04T03:54:40.960Z,1.10
2022-12-04T03:57:16.014Z,1.10
2022-12-04T04:00:10.953Z,1.00
2022-12-04T04:02:47.864Z,1.10
2022-12-04T04:05:17.361Z,1.00
2022-12-04T04:08:18.038Z,1.00
2022-12-04T04:10:47.071Z,1.00
2022-12-04T04:13:40.473Z,0.90
2022-12-04T04:16:30.514Z,0.90
2022-12-04T04:19:19.451Z,0.90
2022-12-04T04:22:09.314Z,1.00
2022-12-04T04:24:51.808Z,1.00
2022-12-04T04:27:19.832Z,1.00
2022-12-04T04:29:52.590Z,1.00
2022-12-04T04:32:49.758Z,1.00
2022-12-04T04:35:21.556Z,1.00
2022-12-04T04:38:24.470Z,1.00
2022-12-04T04:41:22.492Z,1.00
2022-12-04T04:43:56.262Z,1.00
2022-12-04T04:46:31.436Z,0.90
2022-12-04T04:49:03.099Z,0.90
2022-12-04T04:51:34.347Z,0.90
2022-12-04T04:54:07.298Z,1.00
2022-12-04T04:56:45.734Z,0.90
2022-12-04T04:59:15.394Z,0.90
2022-12-04T05:01:46.637Z,0.90
2022-12-04T05:04:14.852Z,0.90
2022-12-04T05:06:43.301Z,0.90
2022-12-04T05:09:11.418Z,0.90
2022-12-04T05:11:39.791Z,0.90
2022-12-04T05:14:09.864Z,0.90
2022-12-04T05:16:39.783Z,0.90
2022-12-04T05:19:26.168Z,0.90
2022-12-04T05:21:54.728Z,1.00
2022-12-04T05:24:22.674Z,1.00
2022-12-04T05:26:51.076Z,1.00
2022-12-04T05:29:19.191Z,1.00
2022-12-04T05:31:47.669Z,1.00
2022-12-04T05:34:15.611Z,1.00
2022-12-04T05:36:43.976Z,1.00
2022-12-04T05:39:11.965Z,1.00
2022-12-04T05:41:40.367Z,1.10
2022-12-04T05:44:08.384Z,1.00
2022-12-04T05:46:36.793Z,1.00
2022-12-04T05:49:04.842Z,1.10
2022-12-04T05:51:33.315Z,1.00
2022-12-04T05:54:01.272Z,1.10
2022-12-04T05:56:29.751Z,1.00
2022-12-04T05:58:58.650Z,1.10
2022-12-04T06:01:27.064Z,1.10
2022-12-04T06:03:55.156Z,1.10
2022-12-04T06:06:25.889Z,1.20
2022-12-04T06:08:55.666Z,1.20
2022-12-04T06:11:29.733Z,1.20
2022-12-04T06:14:00.265Z,1.20
2022-12-04T06:16:31.742Z,1.20
2022-12-04T06:19:02.888Z,1.20
2022-12-04T06:21:33.178Z,1.20
2022-12-04T06:24:01.721Z,1.10
2022-12-04T06:26:30.280Z,1.10
2022-12-04T06:29:00.249Z,1.10
2022-12-04T06:31:30.580Z,1.10
2022-12-04T06:33:59.470Z,1.10
2022-12-04T06:36:28.113Z,1.10
2022-12-04T06:38:57.337Z,1.10
2022-12-04T06:41:27.353Z,1.10
2022-12-04T06:43:55.834Z,1.10
2022-12-04T06:46:27.808Z,1.10
2022-12-04T06:48:58.567Z,1.10
2022-12-04T06:51:33.070Z,1.10
2022-12-04T06:54:02.234Z,1.10
2022-12-04T06:56:32.958Z,1.20
2022-12-04T06:59:02.487Z,1.20
2022-12-04T07:01:33.228Z,1.30
2022-12-04T07:04:04.377Z,1.30
2022-12-04T07:06:37.802Z,1.30
2022-12-04T07:09:10.057Z,1.30
2022-12-04T07:11:40.251Z,1.40
2022-12-04T07:14:08.616Z,1.40
2022-12-04T07:16:41.195Z,1.40
2022-12-04T07:19:11.811Z,1.40
2022-12-04T07:21:43.159Z,1.40
2022-12-04T07:24:15.766Z,1.50
2022-12-04T07:26:44.346Z,1.50
2022-12-04T07:29:12.420Z,1.50
2022-12-04T07:31:41.083Z,1.60
2022-12-04T07:34:09.173Z,1.50
2022-12-04T07:36:39.083Z,1.60
2022-12-04T07:39:07.069Z,1.60
2022-12-04T07:41:36.128Z,1.60
2022-12-04T07:44:08.172Z,1.60
2022-12-04T07:46:36.521Z,1.60
2022-12-04T07:49:04.562Z,1.70
2022-12-04T07:51:32.905Z,1.70
2022-12-04T07:54:03.518Z,1.70
2022-12-04T07:56:35.133Z,1.80
2022-12-04T07:59:04.951Z,1.80
2022-12-04T08:01:33.677Z,1.80
2022-12-04T08:04:03.855Z,1.80
2022-12-04T08:06:35.360Z,1.80
2022-12-04T08:09:10.173Z,1.80
2022-12-04T08:11:39.382Z,1.80
2022-12-04T08:14:09.162Z,1.80
2022-12-04T08:16:37.851Z,1.80
2022-12-04T08:19:06.837Z,1.90
2022-12-04T08:21:35.399Z,1.80
2022-12-04T08:24:03.646Z,1.80
2022-12-04T08:26:35.600Z,1.80
2022-12-04T08:29:05.757Z,1.80
2022-12-04T08:31:38.339Z,1.90
2022-12-04T08:34:16.391Z,1.90
2022-12-04T08:36:44.771Z,1.90
2022-12-04T08:39:13.534Z,1.90
2022-12-04T08:41:49.109Z,1.90
2022-12-04T08:44:26.082Z,1.90
2022-12-04T08:46:54.460Z,1.90
2022-12-04T08:49:22.476Z,1.90
2022-12-04T08:52:01.223Z,1.90
2022-12-04T08:54:36.113Z,1.90
2022-12-04T08:57:05.510Z,1.90
2022-12-04T08:59:33.603Z,2.00
2022-12-04T09:02:11.275Z,2.00
2022-12-04T09:04:39.643Z,2.00
2022-12-04T09:07:08.209Z,2.00
2022-12-04T09:09:36.644Z,2.00
2022-12-04T09:12:05.097Z,2.00
2022-12-04T09:14:33.202Z,2.10
2022-12-04T09:17:01.676Z,2.00
2022-12-04T09:19:31.483Z,2.10
2022-12-04T09:21:59.813Z,2.10
2022-12-04T09:24:29.527Z,2.10
2022-12-04T09:26:57.948Z,2.10
2022-12-04T09:29:26.495Z,2.10
2022-12-04T09:31:54.868Z,2.10
2022-12-04T09:34:22.854Z,2.10
2022-12-04T09:36:51.229Z,2.10
2022-12-04T09:39:19.280Z,2.10
2022-12-04T09:41:53.834Z,2.20
2022-12-04T09:44:33.096Z,2.20
2022-12-04T09:47:09.517Z,2.20
2022-12-04T09:49:49.635Z,2.20
2022-12-04T09:52:27.860Z,2.20
2022-12-04T09:54:57.794Z,2.20
2022-12-04T09:57:29.766Z,2.20
2022-12-04T09:59:58.763Z,2.20
2022-12-04T10:02:36.650Z,2.30
2022-12-04T10:05:06.580Z,2.30
2022-12-04T10:08:13.597Z,2.30
2022-12-04T10:10:54.579Z,2.30
2022-12-04T10:13:41.224Z,2.30
2022-12-04T10:16:24.544Z,2.30
2022-12-04T10:19:05.175Z,2.40
2022-12-04T10:21:33.204Z,2.40
2022-12-04T10:24:10.525Z,2.40
2022-12-04T10:26:45.021Z,2.40
2022-12-04T10:29:29.872Z,2.30
2022-12-04T10:32:05.249Z,2.40
2022-12-04T10:34:33.815Z,2.30
2022-12-04T10:37:16.266Z,2.30
2022-12-04T10:39:58.986Z,2.30
2022-12-04T10:42:38.896Z,2.30
2022-12-04T10:45:07.700Z,2.40
2022-12-04T10:47:36.218Z,2.40
2022-12-04T10:50:17.376Z,2.30
2022-12-04T10:52:45.938Z,2.30
2022-12-04T10:55:15.577Z,2.30
2022-12-04T10:57:46.857Z,2.30
2022-12-04T11:00:25.082Z,2.30
2022-12-04T11:02:55.478Z,2.30
2022-12-04T11:05:33.775Z,2.30
2022-12-04T11:08:05.291Z,2.30
2022-12-04T11:10:41.432Z,2.30
2022-12-04T11:13:12.487Z,2.30
2022-12-04T11:16:00.116Z,2.30
2022-12-04T11:18:46.776Z,2.30
2022-12-04T11:21:24.658Z,2.30
2022-12-04T11:23:54.031Z,2.40
2022-12-04T11:26:37.978Z,2.30
2022-12-04T11:29:07.377Z,2.40
2022-12-04T11:31:37.059Z,2.40
2022-12-04T11:34:15.857Z,2.40
2022-12-04T11:36:49.314Z,2.40
2022-12-04T11:39:19.263Z,2.30
2022-12-04T11:41:47.931Z,2.40
2022-12-04T11:44:27.713Z,2.40
2022-12-04T11:46:58.945Z,2.40
2022-12-04T11:49:27.625Z,2.30
2022-12-04T11:52:33.732Z,2.30
2022-12-04T11:55:09.764Z,2.40
2022-12-04T11:57:44.033Z,2.30
2022-12-04T12:00:32.985Z,2.30
2022-12-04T12:03:16.075Z,2.40
2022-12-04T12:06:11.995Z,2.40
2022-12-04T12:08:49.943Z,2.40
2022-12-04T12:11:33.477Z,2.30
2022-12-04T12:14:08.888Z,2.30
2022-12-04T12:16:58.009Z,2.30
2022-12-04T12:19:37.492Z,2.30
2022-12-04T12:22:56.794Z,2.30
2022-12-04T12:25:55.519Z,2.30
2022-12-04T12:29:03.492Z,2.30
2022-12-04T12:31:59.685Z,2.30
2022-12-04T12:34:37.484Z,2.30
2022-12-04T12:37:42.083Z,2.30
2022-12-04T12:40:28.905Z,2.30
2022-12-04T12:43:03.440Z,2.30
2022-12-04T12:45:48.996Z,2.30
2022-12-04T12:48:32.980Z,2.30
2022-12-04T12:51:31.968Z,2.30
2022-12-04T12:54:30.214Z,2.30
2022-12-04T12:57:06.721Z,2.20
2022-12-04T12:59:38.394Z,2.30
2022-12-04T13:02:18.689Z,2.30
2022-12-04T13:04:51.567Z,2.20
2022-12-04T13:07:21.026Z,2.20
2022-12-04T13:10:28.225Z,2.20
2022-12-04T13:13:06.744Z,2.20
2022-12-04T13:15:50.873Z,2.20
2022-12-04T13:18:32.656Z,2.20
2022-12-04T13:21:06.810Z,2.10
2022-12-04T13:24:06.964Z,2.10
2022-12-04T13:26:56.911Z,2.20
2022-12-04T13:30:03.830Z,2.10
2022-12-04T13:33:09.829Z,2.10
2022-12-04T13:35:46.643Z,2.10
2022-12-04T13:38:35.593Z,2.10
2022-12-04T13:41:07.426Z,2.10
2022-12-04T13:43:54.354Z,2.10
2022-12-04T13:46:48.340Z,2.10
2022-12-04T13:49:26.277Z,2.10
2022-12-04T13:51:56.040Z,2.10
2022-12-04T13:54:29.589Z,2.00
2022-12-04T13:57:19.909Z,2.10
2022-12-04T13:59:49.880Z,2.00
2022-12-04T14:02:35.646Z,2.00
2022-12-04T14:05:06.416Z,2.00
2022-12-04T14:07:38.172Z,2.00
2022-12-04T14:10:16.326Z,2.00
2022-12-04T14:13:03.304Z,2.00
2022-12-04T14:15:35.959Z,2.00
2022-12-04T14:18:13.524Z,1.90
2022-12-04T14:20:44.930Z,2.00
2022-12-04T14:23:15.826Z,1.90
2022-12-04T14:25:44.523Z,1.90
2022-12-04T14:28:41.887Z,1.90
2022-12-04T14:31:29.901Z,1.90
2022-12-04T14:34:02.594Z,1.90
2022-12-04T14:36:37.751Z,1.90
2022-12-04T14:39:11.672Z,1.90
2022-12-04T14:44:41.541Z,1.90
2022-12-04T14:47:32.723Z,1.90
2022-12-04T14:50:00.781Z,1.90
2022-12-04T14:52:39.241Z,1.80
2022-12-04T14:55:47.333Z,1.80
2022-12-04T14:58:32.827Z,1.80
2022-12-04T15:01:28.439Z,1.80
2022-12-04T15:04:06.487Z,1.70
2022-12-04T15:06:40.291Z,1.70
2022-12-04T15:09:37.594Z,1.70
2022-12-04T15:12:33.500Z,1.70
2022-12-04T15:15:27.640Z,1.70
2022-12-04T15:18:04.858Z,1.70
2022-12-04T15:20:39.595Z,1.70
2022-12-04T15:23:12.072Z,1.70
2022-12-04T15:25:58.202Z,1.70
2022-12-04T15:28:30.789Z,1.70
2022-12-04T15:31:01.936Z,1.70
2022-12-04T15:33:32.897Z,1.70
2022-12-04T15:36:12.919Z,1.80
2022-12-04T15:38:41.459Z,1.70
2022-12-04T15:41:32.201Z,1.70
2022-12-04T15:44:00.952Z,1.70
2022-12-04T15:46:35.951Z,1.70
2022-12-04T15:49:25.240Z,1.70
2022-12-04T15:52:08.316Z,1.70
2022-12-04T15:54:37.009Z,1.80
2022-12-04T15:57:29.079Z,1.80
2022-12-04T16:00:01.559Z,1.80
2022-12-04T16:02:45.811Z,1.80
2022-12-04T16:05:37.819Z,1.80
2022-12-04T16:08:26.802Z,1.80
2022-12-04T16:11:23.048Z,1.80
2022-12-04T16:14:15.274Z,1.80
2022-12-04T16:16:54.647Z,1.80
2022-12-04T16:19:41.528Z,1.70
2022-12-04T16:22:22.019Z,1.70
2022-12-04T16:24:51.127Z,1.60
2022-12-04T16:27:22.969Z,1.60
2022-12-04T16:29:52.323Z,1.60
2022-12-04T16:32:25.033Z,1.60
2022-12-04T16:34:53.732Z,1.60
2022-12-04T16:37:23.230Z,1.60
2022-12-04T16:40:05.442Z,1.60
2022-12-04T16:42:35.150Z,1.60
2022-12-04T16:45:03.885Z,1.60
2022-12-04T16:47:31.859Z,1.60
2022-12-04T16:50:01.527Z,1.60
2022-12-04T16:52:29.617Z,1.60
2022-12-04T16:55:03.123Z,1.60
2022-12-04T16:57:32.862Z,1.60
2022-12-04T17:00:01.314Z,1.60
2022-12-04T17:02:29.570Z,1.60
2022-12-04T17:04:58.334Z,1.60
2022-12-04T17:07:26.789Z,1.60
2022-12-04T17:09:55.495Z,1.60
2022-12-04T17:12:23.571Z,1.60
2022-12-04T17:14:51.961Z,1.60
2022-12-04T17:17:20.017Z,1.60
2022-12-04T17:19:48.406Z,1.60
2022-12-04T17:22:16.967Z,1.60
2022-12-04T17:24:50.304Z,1.50
2022-12-04T17:27:23.421Z,1.50
2022-12-04T17:29:51.824Z,1.50
2022-12-04T17:32:19.846Z,1.50
2022-12-04T17:34:48.258Z,1.50
2022-12-04T17:37:18.745Z,1.50
2022-12-04T17:39:47.289Z,1.50
2022-12-04T17:42:16.940Z,1.50
2022-12-04T17:44:45.917Z,1.50
2022-12-04T17:47:14.959Z,1.50
2022-12-04T17:49:46.993Z,1.60
2022-12-04T17:52:15.044Z,1.60
2022-12-04T17:54:43.473Z,1.60
2022-12-04T17:57:11.732Z,1.60
2022-12-04T17:59:41.510Z,1.60
2022-12-04T18:02:11.395Z,1.60
2022-12-04T18:04:39.897Z,1.70
2022-12-04T18:07:08.797Z,1.60
2022-12-04T18:09:37.960Z,1.60
2022-12-04T18:12:07.404Z,1.60
2022-12-04T18:14:37.356Z,1.60
2022-12-04T18:17:05.468Z,1.50
2022-12-04T18:19:33.791Z,1.60
2022-12-04T18:22:01.961Z,1.50
2022-12-04T18:24:30.746Z,1.50
2022-12-04T18:26:59.007Z,1.50
2022-12-04T18:29:27.670Z,1.50
2022-12-04T18:31:55.979Z,1.50
2022-12-04T18:34:24.583Z,1.50
2022-12-04T18:36:53.098Z,1.50
2022-12-04T18:39:23.879Z,1.50
2022-12-04T18:41:56.501Z,1.50
2022-12-04T18:44:26.370Z,1.50
2022-12-04T18:46:54.541Z,1.50
2022-12-04T18:49:23.004Z,1.50
2022-12-04T18:51:51.092Z,1.50
2022-12-04T18:54:22.608Z,1.50
2022-12-04T18:56:51.366Z,1.40
2022-12-04T18:59:25.044Z,1.40
2022-12-04T19:01:54.528Z,1.40
2022-12-04T19:04:25.094Z,1.40
2022-12-04T19:06:56.657Z,1.40
2022-12-04T19:10:02.058Z,1.40
2022-12-04T19:12:16.798Z,1.50
2022-12-04T19:14:45.184Z,1.40
2022-12-04T19:17:13.563Z,1.40
2022-12-04T19:19:41.888Z,1.40
2022-12-04T19:22:16.167Z,1.40
2022-12-04T19:24:45.002Z,1.40
2022-12-04T19:27:13.591Z,1.40
2022-12-04T19:29:43.692Z,1.40
2022-12-04T19:32:12.683Z,1.40
2022-12-04T19:34:41.697Z,1.40
2022-12-04T19:37:09.804Z,1.40
2022-12-04T19:39:38.671Z,1.40
2022-12-04T19:42:06.821Z,1.40
2022-12-04T19:44:51.473Z,1.40
2022-12-04T19:47:20.069Z,1.40
2022-12-04T19:49:50.983Z,1.40
2022-12-04T19:52:38.072Z,1.40
2022-12-04T19:55:19.493Z,1.40
2022-12-04T19:57:48.605Z,1.40
2022-12-04T20:00:17.320Z,1.40
2022-12-04T20:02:45.863Z,1.40
2022-12-04T20:05:16.776Z,1.40
2022-12-04T20:07:44.984Z,1.40
2022-12-04T20:10:13.950Z,1.40
2022-12-04T20:12:41.968Z,1.40
2022-12-04T20:15:10.803Z,1.40
2022-12-04T20:17:41.741Z,1.40
2022-12-04T20:20:10.295Z,1.40
2022-12-04T20:22:38.600Z,1.40
2022-12-04T20:25:09.678Z,1.40
2022-12-04T20:27:37.823Z,1.40
2022-12-04T20:30:27.643Z,1.40
2022-12-04T20:32:57.251Z,1.40
2022-12-04T20:35:26.157Z,1.40
2022-12-04T20:38:06.427Z,1.40
2022-12-04T20:40:35.794Z,1.40
2022-12-04T20:43:04.020Z,1.40
2022-12-04T20:45:33.387Z,1.40
2022-12-04T20:48:01.545Z,1.40
2022-12-04T20:50:29.999Z,1.40
2022-12-04T20:52:58.146Z,1.40
2022-12-04T20:55:29.480Z,1.40
2022-12-04T20:57:58.316Z,1.30
2022-12-04T21:00:27.620Z,1.30
2022-12-04T21:02:56.365Z,1.30
2022-12-04T21:05:25.180Z,1.30
2022-12-04T21:07:53.428Z,1.30
2022-12-04T21:10:21.827Z,1.30
2022-12-04T21:13:08.436Z,1.30
2022-12-04T21:15:55.677Z,1.30
2022-12-04T21:18:23.732Z,1.30
2022-12-04T21:20:52.038Z,1.30
2022-12-04T21:23:20.342Z,1.30
2022-12-04T21:25:52.949Z,1.30
2022-12-04T21:28:21.040Z,1.30
2022-12-04T21:30:49.444Z,1.30
2022-12-04T21:33:17.828Z,1.30
2022-12-04T21:35:46.392Z,1.20
2022-12-04T21:38:14.409Z,1.20
2022-12-04T21:40:42.860Z,1.20
2022-12-04T21:43:11.160Z,1.20
2022-12-04T21:45:39.571Z,1.30
2022-12-04T21:48:07.606Z,1.30
2022-12-04T21:50:35.911Z,1.30
2022-12-04T21:53:03.965Z,1.30
2022-12-04T21:55:32.330Z,1.30
2022-12-04T21:58:00.368Z,1.30
2022-12-04T22:00:28.688Z,1.30
2022-12-04T22:02:56.771Z,1.30
2022-12-04T22:05:25.225Z,1.30
2022-12-04T22:07:53.319Z,1.30
2022-12-04T22:10:21.747Z,1.40
2022-12-04T22:12:50.603Z,1.30
2022-12-04T22:15:19.616Z,1.30
2022-12-04T22:17:47.893Z,1.30
2022-12-04T22:20:16.365Z,1.30
2022-12-04T22:22:44.391Z,1.30
2022-12-04T22:25:14.823Z,1.30
2022-12-04T22:27:42.730Z,1.30
2022-12-04T22:30:12.224Z,1.30
2022-12-04T22:32:40.265Z,1.30
2022-12-04T22:35:09.215Z,1.30
2022-12-04T22:37:41.238Z,1.20
2022-12-04T22:40:14.854Z,1.20
2022-12-04T22:42:43.707Z,1.20
2022-12-04T22:45:12.803Z,1.10
2022-12-04T22:47:40.859Z,1.10
2022-12-04T22:50:09.985Z,1.10
2022-12-04T22:52:37.953Z,1.10
2022-12-04T22:55:07.091Z,1.00
2022-12-04T22:57:35.400Z,1.00
2022-12-04T23:00:05.486Z,1.00
2022-12-04T23:02:33.952Z,1.00
2022-12-04T23:05:02.780Z,1.00
2022-12-04T23:07:31.316Z,1.00
2022-12-04T23:10:00.184Z,0.90
2022-12-04T23:12:30.189Z,0.90
2022-12-04T23:14:58.669Z,1.00
2022-12-04T23:17:27.440Z,1.00
2022-12-04T23:19:56.232Z,1.00
2022-12-04T23:22:24.491Z,1.00
2022-12-04T23:24:52.945Z,1.00
2022-12-04T23:27:20.939Z,1.00
2022-12-04T23:29:53.554Z,1.00
2022-12-04T23:32:22.001Z,1.00
2022-12-04T23:34:50.611Z,1.00
2022-12-04T23:37:18.995Z,1.00
2022-12-04T23:39:47.847Z,1.00
2022-12-04T23:42:16.078Z,1.00
2022-12-04T23:44:44.539Z,1.00
2022-12-04T23:47:13.183Z,1.00
2022-12-04T23:49:41.738Z,1.00
2022-12-04T23:52:09.809Z,1.00
2022-12-04T23:54:38.180Z,1.00
2022-12-04T23:57:06.187Z,1.00
2022-12-04T23:59:34.575Z,1.00
